createdAt,value
2018-07-23T00:01:57.748Z,64.28
2018-07-23T00:04:28.350Z,64.08
2018-07-23T00:06:59.237Z,64.35
2018-07-23T00:09:29.801Z,64.89
2018-07-23T00:12:00.222Z,65.43
2018-07-23T00:14:30.824Z,65.62
2018-07-23T00:17:01.720Z,65.33
2018-07-23T00:19:33.574Z,65.49
2018-07-23T00:22:04.096Z,66.10
2018-07-23T00:24:34.695Z,66.41
2018-07-23T00:27:05.234Z,67.31
2018-07-23T00:29:35.786Z,67.08
2018-07-23T00:32:06.364Z,68.20
2018-07-23T00:34:37.056Z,68.19
2018-07-23T00:37:08.174Z,68.20
2018-07-23T00:39:39.178Z,69.81
2018-07-23T00:42:09.174Z,69.11
2018-07-23T00:44:39.800Z,70.32
2018-07-23T00:47:10.641Z,69.82
2018-07-23T00:49:41.276Z,69.25
2018-07-23T00:52:12.666Z,68.97
2018-07-23T00:54:43.431Z,69.25
2018-07-23T00:57:14.772Z,69.74
2018-07-23T00:59:45.289Z,70.68
2018-07-23T01:02:15.924Z,71.06
2018-07-23T01:04:46.567Z,71.10
2018-07-23T01:07:17.180Z,71.78
2018-07-23T01:09:49.136Z,71.85
2018-07-23T01:12:34.369Z,72.37
2018-07-23T01:15:05.357Z,73.20
2018-07-23T01:17:35.902Z,74.47
2018-07-23T01:20:06.608Z,74.02
2018-07-23T01:22:37.109Z,73.51
2018-07-23T01:25:07.626Z,74.02
2018-07-23T01:27:38.975Z,73.03
2018-07-23T01:30:09.899Z,73.34
2018-07-23T01:32:40.076Z,73.53
2018-07-23T01:35:10.368Z,74.02
2018-07-23T01:37:40.975Z,74.12
2018-07-23T01:40:11.611Z,73.75
2018-07-23T01:42:42.727Z,73.14
2018-07-23T01:45:13.694Z,73.07
2018-07-23T01:47:44.911Z,73.09
2018-07-23T01:50:15.449Z,73.70
2018-07-23T01:52:46.090Z,73.42
2018-07-23T01:55:16.654Z,73.01
2018-07-23T01:57:47.417Z,72.23
2018-07-23T02:00:18.380Z,70.87
2018-07-23T02:02:48.846Z,71.07
2018-07-23T02:05:20.152Z,70.22
2018-07-23T02:07:51.641Z,70.89
2018-07-23T02:10:22.109Z,70.57
2018-07-23T02:12:53.445Z,70.95
2018-07-23T02:15:23.919Z,70.71
2018-07-23T02:17:54.373Z,70.15
2018-07-23T02:20:24.879Z,69.55
2018-07-23T02:22:56.650Z,68.51
2018-07-23T02:25:27.272Z,67.85
2018-07-23T02:27:57.927Z,68.17
2018-07-23T02:30:28.404Z,68.16
2018-07-23T02:32:58.995Z,67.88
2018-07-23T02:35:29.516Z,68.20
2018-07-23T02:38:00.093Z,67.18
2018-07-23T02:40:30.663Z,65.78
2018-07-23T02:43:01.778Z,65.70
2018-07-23T02:45:33.261Z,66.12
2018-07-23T02:48:03.782Z,66.28
2018-07-23T02:50:34.565Z,66.65
2018-07-23T02:53:05.167Z,66.65
2018-07-23T02:55:35.770Z,69.72
2018-07-23T02:58:06.303Z,71.19
2018-07-23T03:00:36.950Z,74.04
2018-07-23T03:03:08.704Z,77.05
2018-07-23T03:05:38.713Z,78.81
2018-07-23T03:08:09.298Z,80.54
2018-07-23T03:10:39.770Z,80.61
2018-07-23T03:13:10.279Z,79.55
2018-07-23T03:15:40.797Z,82.19
2018-07-23T03:18:11.245Z,82.53
2018-07-23T03:20:41.981Z,82.75
2018-07-23T03:23:13.239Z,82.65
2018-07-23T03:25:43.897Z,85.01
2018-07-23T03:28:14.395Z,85.09
2018-07-23T03:30:44.383Z,85.43
2018-07-23T03:33:15.044Z,83.06
2018-07-23T03:35:45.554Z,84.13
2018-07-23T03:38:16.167Z,84.59
2018-07-23T03:40:46.898Z,85.49
2018-07-23T03:43:18.211Z,85.26
2018-07-23T03:45:49.015Z,85.20
2018-07-23T03:48:19.491Z,84.84
2018-07-23T03:50:50.144Z,86.39
2018-07-23T03:53:20.757Z,84.52
2018-07-23T03:55:52.218Z,85.67
2018-07-23T03:58:22.896Z,86.37
2018-07-23T04:00:54.338Z,85.59
2018-07-23T04:03:25.611Z,85.39
2018-07-23T04:05:56.114Z,85.33
2018-07-23T04:08:26.742Z,86.33
2018-07-23T04:10:57.308Z,86.99
2018-07-23T04:13:27.904Z,88.46
2018-07-23T04:15:58.299Z,88.79
2018-07-23T04:18:29.001Z,89.26
2018-07-23T04:21:00.487Z,89.32
2018-07-23T04:23:31.274Z,89.67
2018-07-23T04:26:01.719Z,89.91
2018-07-23T04:28:32.371Z,89.70
2018-07-23T04:31:02.860Z,89.55
2018-07-23T04:33:33.914Z,89.81
2018-07-23T04:36:04.474Z,89.31
2018-07-23T04:38:35.441Z,88.73
2018-07-23T04:41:06.424Z,88.97
2018-07-23T04:43:37.005Z,88.72
2018-07-23T04:46:07.670Z,88.56
2018-07-23T04:48:38.432Z,86.99
2018-07-23T04:51:10.652Z,87.86
2018-07-23T04:53:41.241Z,87.84
2018-07-23T04:56:11.672Z,88.00
2018-07-23T04:58:42.432Z,87.88
2018-07-23T05:01:13.346Z,87.11
2018-07-23T05:03:43.934Z,86.35
2018-07-23T05:06:14.474Z,86.24
2018-07-23T05:08:45.042Z,84.71
2018-07-23T05:11:15.602Z,84.00
2018-07-23T05:13:46.174Z,84.96
2018-07-23T05:16:16.688Z,84.84
2018-07-23T05:18:48.116Z,84.03
2018-07-23T05:21:19.243Z,83.84
2018-07-23T05:23:50.004Z,84.16
2018-07-23T05:26:20.717Z,84.19
2018-07-23T05:28:52.155Z,84.00
2018-07-23T05:31:22.822Z,83.90
2018-07-23T05:33:53.330Z,83.34
2018-07-23T05:36:24.036Z,82.71
2018-07-23T05:38:55.626Z,83.14
2018-07-23T05:41:26.760Z,82.34
2018-07-23T05:43:57.347Z,82.26
2018-07-23T05:46:27.946Z,81.46
2018-07-23T05:48:58.488Z,81.67
2018-07-23T05:51:29.575Z,81.41
2018-07-23T05:54:00.327Z,80.39
2018-07-23T05:56:31.515Z,80.84
2018-07-23T05:59:03.005Z,80.05
2018-07-23T06:01:33.744Z,79.12
2018-07-23T06:04:05.094Z,78.36
2018-07-23T06:06:36.099Z,76.81
2018-07-23T06:09:10.031Z,75.54
2018-07-23T06:11:40.735Z,75.00
2018-07-23T06:14:12.109Z,71.60
2018-07-23T06:16:43.218Z,70.26
2018-07-23T06:19:13.807Z,67.96
2018-07-23T06:21:44.582Z,66.82
2018-07-23T06:24:14.597Z,66.11
2018-07-23T06:26:45.142Z,63.02
2018-07-23T06:29:15.855Z,62.63
2018-07-23T06:31:47.251Z,60.51
2018-07-23T06:34:19.739Z,59.46
2018-07-23T06:36:53.847Z,58.97
2018-07-23T06:39:24.922Z,58.11
2018-07-23T06:41:55.900Z,61.66
2018-07-23T06:44:26.779Z,57.63
2018-07-23T06:46:58.871Z,58.89
2018-07-23T06:49:30.346Z,57.20
2018-07-23T06:52:01.595Z,53.89
2018-07-23T06:54:32.192Z,53.31
2018-07-23T06:57:02.827Z,51.22
2018-07-23T06:59:33.758Z,49.43
2018-07-23T07:02:04.440Z,48.69
2018-07-23T07:04:36.140Z,49.49
2018-07-23T07:07:06.830Z,49.94
2018-07-23T07:09:38.910Z,50.63
2018-07-23T07:12:10.221Z,51.33
2018-07-23T07:14:41.703Z,54.02
2018-07-23T07:17:13.146Z,54.58
2018-07-23T07:19:44.263Z,52.17
2018-07-23T07:22:14.848Z,50.29
2018-07-23T07:24:47.945Z,49.46
2018-07-23T07:27:20.099Z,48.45
2018-07-23T07:29:51.787Z,48.81
2018-07-23T07:32:22.728Z,48.78
2018-07-23T07:34:53.516Z,46.53
2018-07-23T07:37:25.350Z,45.98
2018-07-23T07:39:59.944Z,44.14
2018-07-23T07:42:33.241Z,43.68
2018-07-23T07:45:05.818Z,45.12
2018-07-23T07:47:36.852Z,47.82
2018-07-23T07:50:09.075Z,49.98
2018-07-23T07:52:40.052Z,52.59
2018-07-23T07:55:10.569Z,50.83
2018-07-23T07:57:41.578Z,45.53
2018-07-23T08:00:13.901Z,44.04
2018-07-23T08:02:46.101Z,40.34
2018-07-23T08:05:16.929Z,38.29
2018-07-23T08:07:48.126Z,37.20
2018-07-23T08:10:19.444Z,36.42
2018-07-23T08:12:52.208Z,34.58
2018-07-23T08:15:22.939Z,33.83
2018-07-23T08:17:54.234Z,33.73
2018-07-23T08:20:26.552Z,33.81
2018-07-23T08:22:57.551Z,34.08
2018-07-23T08:25:28.404Z,34.67
2018-07-23T08:27:59.981Z,35.58
2018-07-23T08:30:33.070Z,36.85
2018-07-23T08:33:03.979Z,36.11
2018-07-23T08:35:35.198Z,39.69
2018-07-23T08:38:07.591Z,42.93
2018-07-23T08:40:39.133Z,42.79
2018-07-23T08:43:10.013Z,38.76
2018-07-23T08:45:43.156Z,32.94
2018-07-23T08:48:14.482Z,31.71
2018-07-23T08:50:46.325Z,28.96
2018-07-23T08:53:19.254Z,28.04
2018-07-23T08:55:51.378Z,29.11
2018-07-23T08:58:23.395Z,27.45
2018-07-23T09:00:55.981Z,30.67
2018-07-23T09:03:28.924Z,30.46
2018-07-23T09:05:59.740Z,28.47
2018-07-23T09:08:30.783Z,28.01
2018-07-23T09:11:02.311Z,26.94
2018-07-23T09:13:33.160Z,26.79
2018-07-23T09:16:04.111Z,25.89
2018-07-23T09:18:35.742Z,28.30
2018-07-23T09:21:06.804Z,29.23
2018-07-23T09:23:37.814Z,29.77
2018-07-23T09:26:09.174Z,31.79
2018-07-23T09:28:41.170Z,30.08
2018-07-23T09:31:12.302Z,27.79
2018-07-23T09:33:43.566Z,27.50
2018-07-23T09:36:14.753Z,26.80
2018-07-23T09:38:46.026Z,27.55
2018-07-23T09:41:17.199Z,27.16
2018-07-23T09:43:48.314Z,27.07
2018-07-23T09:46:20.432Z,28.54
2018-07-23T09:48:52.572Z,28.65
2018-07-23T09:51:23.360Z,27.24
2018-07-23T09:53:54.801Z,26.51
2018-07-23T09:56:26.311Z,27.63
2018-07-23T09:58:57.769Z,25.97
2018-07-23T10:01:28.739Z,25.63
2018-07-23T10:04:00.323Z,25.11
2018-07-23T10:06:32.306Z,24.99
2018-07-23T10:09:03.040Z,23.92
2018-07-23T10:11:33.964Z,23.68
2018-07-23T10:14:04.937Z,23.19
2018-07-23T10:16:36.777Z,23.18
2018-07-23T10:19:07.530Z,21.46
2018-07-23T10:21:38.762Z,22.04
2018-07-23T10:24:10.835Z,22.28
2018-07-23T10:26:43.782Z,22.12
2018-07-23T10:29:15.120Z,21.33
2018-07-23T10:31:46.767Z,21.52
2018-07-23T10:34:19.581Z,21.98
2018-07-23T10:36:50.475Z,22.82
2018-07-23T10:39:21.096Z,23.39
2018-07-23T10:41:53.763Z,24.49
2018-07-23T10:44:24.936Z,24.49
2018-07-23T10:46:55.598Z,24.29
2018-07-23T10:49:26.335Z,23.84
2018-07-23T10:51:58.208Z,23.58
2018-07-23T10:54:28.988Z,23.54
2018-07-23T10:56:59.922Z,23.71
2018-07-23T10:59:30.999Z,24.31
2018-07-23T11:02:03.052Z,23.86
2018-07-23T11:04:34.835Z,24.70
2018-07-23T11:07:06.171Z,24.33
2018-07-23T11:09:37.233Z,23.94
2018-07-23T11:12:07.854Z,24.38
2018-07-23T11:14:42.170Z,24.22
2018-07-23T11:17:16.403Z,23.77
2018-07-23T11:19:48.372Z,24.46
2018-07-23T11:22:19.344Z,23.75
2018-07-23T11:24:50.535Z,23.21
2018-07-23T11:27:21.724Z,23.14
2018-07-23T11:29:52.161Z,25.42
2018-07-23T11:32:25.134Z,24.34
2018-07-23T11:34:57.632Z,24.09
2018-07-23T11:37:28.979Z,24.57
2018-07-23T11:39:59.916Z,23.56
2018-07-23T11:42:31.086Z,24.30
2018-07-23T11:45:03.440Z,23.85
2018-07-23T11:47:34.701Z,23.08
2018-07-23T11:50:06.457Z,23.49
2018-07-23T11:52:39.734Z,23.12
2018-07-23T11:55:11.428Z,23.15
2018-07-23T11:57:42.329Z,23.86
2018-07-23T12:00:13.584Z,23.75
2018-07-23T12:02:44.374Z,23.62
2018-07-23T12:05:19.018Z,24.61
2018-07-23T12:07:53.260Z,26.64
2018-07-23T12:10:24.414Z,26.71
2018-07-23T12:12:56.362Z,26.70
2018-07-23T12:15:27.490Z,25.21
2018-07-23T12:17:58.472Z,24.85
2018-07-23T12:20:29.517Z,25.24
2018-07-23T12:23:00.532Z,25.95
2018-07-23T12:25:32.655Z,28.27
2018-07-23T12:28:04.235Z,28.92
2018-07-23T12:30:36.095Z,31.16
2018-07-23T12:33:07.292Z,31.81
2018-07-23T12:35:38.196Z,30.98
2018-07-23T12:38:17.663Z,29.79
2018-07-23T12:40:51.456Z,28.76
2018-07-23T12:43:24.126Z,27.68
2018-07-23T12:45:57.066Z,26.52
2018-07-23T12:48:28.336Z,26.54
2018-07-23T12:51:03.521Z,27.18
2018-07-23T12:53:35.535Z,26.64
2018-07-23T12:56:08.056Z,25.07
2018-07-23T12:58:39.599Z,24.62
2018-07-23T13:01:11.630Z,24.64
2018-07-23T13:03:43.192Z,25.07
2018-07-23T13:06:15.482Z,25.71
2018-07-23T13:08:46.849Z,26.99
2018-07-23T13:11:19.499Z,28.50
2018-07-23T13:13:50.829Z,29.09
2018-07-23T13:16:22.281Z,29.18
2018-07-23T13:18:53.629Z,29.41
2018-07-23T13:21:24.982Z,29.21
2018-07-23T13:23:56.796Z,28.59
2018-07-23T13:26:28.152Z,27.53
2018-07-23T13:29:00.541Z,27.23
2018-07-23T13:31:34.572Z,25.94
2018-07-23T13:34:05.934Z,25.13
2018-07-23T13:36:38.228Z,25.86
2018-07-23T13:39:13.611Z,26.37
2018-07-23T13:41:46.911Z,26.82
2018-07-23T13:44:19.449Z,26.70
2018-07-23T13:46:51.097Z,26.60
2018-07-23T13:49:22.174Z,26.12
2018-07-23T13:51:54.525Z,25.22
2018-07-23T13:54:26.051Z,24.65
2018-07-23T13:56:58.876Z,24.41
2018-07-23T13:59:31.944Z,26.06
2018-07-23T14:02:04.755Z,25.54
2018-07-23T14:04:36.805Z,25.13
2018-07-23T14:07:08.307Z,25.33
2018-07-23T14:09:40.169Z,25.71
2018-07-23T14:12:18.824Z,25.48
2018-07-23T14:14:52.052Z,26.17
2018-07-23T14:17:24.407Z,25.57
2018-07-23T14:20:03.854Z,25.60
2018-07-23T14:22:40.322Z,26.62
2018-07-23T14:25:19.526Z,27.27
2018-07-23T14:27:52.007Z,27.05
2018-07-23T14:30:22.928Z,26.95
2018-07-23T14:32:54.848Z,26.77
2018-07-23T14:35:26.618Z,25.74
2018-07-23T14:37:57.949Z,26.62
2018-07-23T14:40:32.512Z,27.39
2018-07-23T14:43:06.867Z,27.54
2018-07-23T14:45:42.886Z,28.83
2018-07-23T14:48:16.779Z,27.75
2018-07-23T14:50:54.920Z,27.26
2018-07-23T14:53:34.453Z,27.50
2018-07-23T14:56:12.718Z,28.33
2018-07-23T14:58:44.968Z,27.89
2018-07-23T15:01:22.745Z,27.08
2018-07-23T15:03:56.756Z,26.63
2018-07-23T15:06:33.214Z,27.78
2018-07-23T15:09:04.383Z,27.26
2018-07-23T15:11:37.550Z,27.09
2018-07-23T15:14:09.749Z,27.50
2018-07-23T15:16:41.516Z,27.65
2018-07-23T15:19:12.732Z,28.30
2018-07-23T15:21:44.369Z,29.07
2018-07-23T15:24:15.151Z,28.47
2018-07-23T15:26:48.611Z,28.58
2018-07-23T15:29:20.349Z,28.41
2018-07-23T15:31:52.148Z,28.80
2018-07-23T15:34:23.417Z,29.08
2018-07-23T15:36:55.611Z,28.56
2018-07-23T15:39:43.510Z,28.73
2018-07-23T15:42:19.576Z,29.35
2018-07-23T15:44:51.051Z,29.95
2018-07-23T15:47:22.889Z,29.83
2018-07-23T15:49:53.962Z,31.41
2018-07-23T15:52:26.704Z,31.45
2018-07-23T15:55:01.135Z,31.45
2018-07-23T15:57:33.331Z,30.91
2018-07-23T16:00:06.291Z,31.60
2018-07-23T16:02:37.701Z,30.70
2018-07-23T16:05:09.454Z,30.33
2018-07-23T16:07:40.825Z,30.47
2018-07-23T16:10:13.690Z,30.13
2018-07-23T16:12:45.719Z,29.64
2018-07-23T16:15:18.727Z,30.32
2018-07-23T16:17:49.884Z,30.00
2018-07-23T16:20:26.955Z,29.81
2018-07-23T16:22:57.991Z,30.79
2018-07-23T16:25:28.482Z,31.23
2018-07-23T16:28:02.130Z,31.05
2018-07-23T16:30:35.792Z,31.03
2018-07-23T16:33:11.680Z,30.58
2018-07-23T16:35:43.690Z,31.08
2018-07-23T16:38:16.294Z,30.47
2018-07-23T16:40:52.068Z,31.18
2018-07-23T16:43:24.397Z,30.83
2018-07-23T16:45:57.137Z,30.89
2018-07-23T16:48:29.606Z,30.56
2018-07-23T16:51:01.900Z,31.57
2018-07-23T16:53:34.251Z,31.08
2018-07-23T16:56:08.540Z,31.53
2018-07-23T16:58:41.674Z,30.68
2018-07-23T17:01:18.241Z,31.47
2018-07-23T17:03:49.298Z,31.23
2018-07-23T17:06:21.284Z,30.60
2018-07-23T17:08:57.235Z,30.48
2018-07-23T17:11:28.999Z,30.44
2018-07-23T17:14:01.544Z,31.27
2018-07-23T17:16:33.584Z,31.38
2018-07-23T17:19:05.685Z,30.94
2018-07-23T17:21:37.333Z,31.41
2018-07-23T17:24:09.970Z,31.56
2018-07-23T17:26:41.353Z,31.48
2018-07-23T17:29:12.732Z,31.60
2018-07-23T17:31:43.717Z,31.80
2018-07-23T17:34:15.356Z,32.33
2018-07-23T17:36:47.085Z,32.41
2018-07-23T17:39:18.848Z,32.67
2018-07-23T17:41:50.924Z,31.92
2018-07-23T17:44:22.106Z,32.61
2018-07-23T17:46:53.106Z,32.70
2018-07-23T17:49:23.573Z,32.67
2018-07-23T17:51:55.037Z,33.57
2018-07-23T17:54:26.539Z,34.21
2018-07-23T17:56:58.424Z,34.49
2018-07-23T17:59:30.201Z,34.46
2018-07-23T18:02:02.397Z,34.68
2018-07-23T18:04:33.834Z,34.68
2018-07-23T18:07:05.733Z,34.79
2018-07-23T18:09:36.821Z,35.62
2018-07-23T18:12:08.152Z,35.53
2018-07-23T18:14:39.190Z,35.91
2018-07-23T18:17:10.886Z,35.86
2018-07-23T18:19:44.220Z,36.42
2018-07-23T18:22:16.012Z,36.50
2018-07-23T18:24:51.269Z,36.39
2018-07-23T18:27:23.453Z,36.60
2018-07-23T18:29:55.374Z,37.22
2018-07-23T18:32:29.505Z,37.91
2018-07-23T18:35:02.406Z,37.86
2018-07-23T18:37:34.620Z,38.48
2018-07-23T18:40:08.919Z,38.36
2018-07-23T18:42:43.294Z,38.14
2018-07-23T18:45:16.434Z,38.81
2018-07-23T18:47:50.026Z,38.72
2018-07-23T18:50:25.629Z,39.28
2018-07-23T18:53:18.724Z,39.14
2018-07-23T18:55:53.383Z,39.39
2018-07-23T18:58:25.141Z,38.95
2018-07-23T19:00:57.418Z,38.93
2018-07-23T19:03:29.651Z,38.66
2018-07-23T19:06:02.095Z,38.66
2018-07-23T19:08:35.907Z,38.89
2018-07-23T19:11:10.587Z,39.47
2018-07-23T19:13:44.159Z,39.26
2018-07-23T19:16:29.712Z,38.89
2018-07-23T19:19:04.533Z,39.06
2018-07-23T19:21:36.628Z,39.54
2018-07-23T19:24:12.709Z,39.87
2018-07-23T19:26:50.157Z,39.80
2018-07-23T19:29:24.726Z,39.99
2018-07-23T19:32:00.951Z,40.66
2018-07-23T19:34:35.410Z,40.84
2018-07-23T19:37:34.452Z,41.04
2018-07-23T19:40:13.676Z,40.57
2018-07-23T19:42:47.677Z,41.24
2018-07-23T19:45:23.422Z,41.93
2018-07-23T19:48:03.526Z,43.47
2018-07-23T19:50:39.969Z,43.64
2018-07-23T19:53:27.937Z,44.64
2018-07-23T19:56:11.270Z,46.01
2018-07-23T19:58:44.783Z,46.88
2018-07-23T20:01:16.910Z,47.77
2018-07-23T20:03:49.331Z,47.83
2018-07-23T20:06:24.677Z,48.89
2018-07-23T20:08:58.486Z,49.02
2018-07-23T20:11:31.410Z,50.08
2018-07-23T20:14:04.904Z,49.61
2018-07-23T20:16:36.880Z,50.72
2018-07-23T20:19:10.634Z,50.93
2018-07-23T20:21:44.300Z,51.31
2018-07-23T20:24:18.175Z,51.41
2018-07-23T20:26:52.084Z,52.13
2018-07-23T20:29:24.630Z,52.54
2018-07-23T20:31:57.631Z,52.74
2018-07-23T20:34:29.641Z,53.27
2018-07-23T20:37:02.511Z,53.20
2018-07-23T20:39:36.166Z,53.58
2018-07-23T20:42:10.672Z,53.78
2018-07-23T20:44:43.692Z,54.18
2018-07-23T20:47:15.537Z,56.68
2018-07-23T20:49:48.282Z,57.72
2018-07-23T20:52:21.922Z,57.23
2018-07-23T20:54:54.878Z,56.46
2018-07-23T20:57:26.489Z,56.05
2018-07-23T20:59:58.598Z,55.94
2018-07-23T21:02:31.577Z,55.58
2018-07-23T21:05:03.191Z,55.34
2018-07-23T21:07:35.318Z,55.14
2018-07-23T21:10:08.913Z,54.89
2018-07-23T21:12:40.453Z,55.05
2018-07-23T21:15:12.389Z,54.83
2018-07-23T21:17:46.191Z,54.93
2018-07-23T21:20:17.683Z,55.32
2018-07-23T21:22:50.444Z,55.34
2018-07-23T21:25:22.178Z,55.22
2018-07-23T21:27:53.123Z,55.46
2018-07-23T21:30:23.713Z,55.11
2018-07-23T21:32:54.397Z,55.56
2018-07-23T21:35:25.237Z,55.68
2018-07-23T21:37:56.000Z,55.83
2018-07-23T21:40:26.808Z,56.25
2018-07-23T21:42:57.861Z,56.66
2018-07-23T21:45:29.725Z,56.90
2018-07-23T21:48:00.427Z,57.25
2018-07-23T21:50:32.255Z,57.49
2018-07-23T21:53:03.045Z,58.07
2018-07-23T21:55:33.732Z,58.11
2018-07-23T21:58:05.165Z,57.58
2018-07-23T22:00:37.068Z,57.34
2018-07-23T22:03:08.584Z,57.17
2018-07-23T22:05:40.076Z,56.81
2018-07-23T22:08:10.679Z,57.28
2018-07-23T22:10:41.212Z,57.58
2018-07-23T22:13:12.302Z,57.62
2018-07-23T22:15:43.929Z,57.69
2018-07-23T22:18:15.589Z,57.83
2018-07-23T22:20:47.712Z,57.40
2018-07-23T22:23:18.606Z,57.71
2018-07-23T22:25:49.416Z,57.84
2018-07-23T22:28:20.480Z,58.04
2018-07-23T22:30:51.435Z,57.66
2018-07-23T22:33:22.149Z,57.71
2018-07-23T22:35:53.664Z,58.32
2018-07-23T22:38:24.329Z,57.99
2018-07-23T22:40:56.542Z,58.12
2018-07-23T22:43:27.167Z,57.99
2018-07-23T22:45:57.875Z,58.08
2018-07-23T22:48:28.493Z,57.51
2018-07-23T22:50:59.224Z,57.19
2018-07-23T22:53:29.814Z,57.25
2018-07-23T22:56:00.460Z,56.70
2018-07-23T22:58:32.313Z,56.99
2018-07-23T23:01:03.091Z,56.63
2018-07-23T23:03:33.977Z,56.75
2018-07-23T23:06:04.586Z,56.73
2018-07-23T23:08:35.329Z,57.08
2018-07-23T23:11:06.213Z,57.63
2018-07-23T23:13:36.808Z,57.67
2018-07-23T23:16:07.941Z,58.17
2018-07-23T23:18:39.459Z,58.81
2018-07-23T23:21:10.802Z,59.05
2018-07-23T23:23:41.208Z,59.55
2018-07-23T23:26:12.365Z,59.95
2018-07-23T23:28:43.289Z,60.32
2018-07-23T23:31:14.062Z,60.69
2018-07-23T23:33:45.163Z,61.16
2018-07-23T23:36:16.573Z,61.42
2018-07-23T23:38:47.469Z,61.21
2018-07-23T23:41:18.043Z,61.87
2018-07-23T23:43:48.573Z,61.75
2018-07-23T23:46:20.058Z,62.43
2018-07-23T23:48:50.765Z,62.49
2018-07-23T23:51:21.333Z,61.94
2018-07-23T23:53:52.376Z,61.97
2018-07-23T23:56:23.705Z,61.35
2018-07-23T23:58:54.488Z,60.64
